UUWW/VKO METAR and TAF weather

Enter ICAO airport designator
Station Type Date Time Source
UUWW METAR 2019/12/06 02:00 UTC NOAA

UUWW 060200Z 25007MPS 5000 -DZ BR OVC004 01/00 Q1007 R24/290050 NOSIG


Station Type Date Time Source
UUWW Decoded METAR 2019/12/06 02:00 UTC NOAA

Moscow / Vnukovo , Russia (UUWW) 55-39N 037-16E
Dec 05, 2019 - 09:00 PM EST / 2019.12.06 0200 UTC
Wind: from the WSW (250 degrees) at 16 MPH (14 KT):0
Visibility: 3 mile(s):0
Sky conditions: overcast
Weather: light drizzle; mist
Temperature: 33 F (1 C)
Windchill: 23 F (-5 C):1
Dew Point: 32 F (0 C)
Relative Humidity: 93%
Pressure (altimeter): 29.74 in. Hg (1007 hPa)
ob: UUWW 060200Z 25007MPS 5000 -DZ BR OVC004 01/00 Q1007 R24/290050 NOSIG
cycle: 2

Station Type Date Time Source
UUWW TAF 2019/12/05 21:26 UTC NOAA

TAF UUWW 051955Z 0521/0621 25007MPS 6000 OVC007 TX01/0521Z TNM02/0618Z
TEMPO 0521/0605 24010G16MPS 3100 -DZ BR OVC003
FM060500 21008MPS 8000 BKN011
TEMPO 0605/0621 20010G16MPS OVC005 PROB40
TEMPO 0605/0621 -FZDZ OVC004

Example: see airport list